Xin Fei Zhou — BPKD — position and weather

sailwx.info

Track history (hours):
 
Tides and Currents Weather Stations Pressure Air Temp Water Temp Dewpoint Dewpoint Depression Visibility Wind Speed Wind Dir Waves Ship Positions

Xin Fei Zhou

Last reported at 2018-Apr-18 15:29 UTC. Time now 2018-Apr-19 17:08 UTC.
Position N 29°44' E 122°25'.

Length 335 m; draft 11.8 m.

Type: Ship (hazmat cat A). MMSI: 413171000.

Date/timePositionNaut miles runAvg speedWind from/ knotsBaromVisibWave heightAir tempDewpointWater temp
2018-Apr-18 15:29N 29°44' E 122°25'715.6
2018-Apr-18 15:00N 29°42' E 122°33'34 1.1
2018-Apr-17 06:38N 30°07' E 123°00'37313.7
2018-Apr-16 03:24N 35°59' E 120°32'612.2
2018-Apr-16 02:53N 36°00' E 120°24'810.2
2018-Apr-16 02:08N 36°02' E 120°15'3 7.6
2018-Apr-16 01:49N 36°00' E 120°13'0 0.4
2018-Apr-16 01:20N 36°00' E 120°13'0 0.0
2018-Apr-16 00:26N 36°00' E 120°13'0 0.0
2018-Apr-15 23:50N 36°00' E 120°13'0 0.0
2018-Apr-15 22:05N 36°00' E 120°13'0 0.0
2018-Apr-15 21:47N 36°00' E 120°13'0 0.0
2018-Apr-15 21:23N 36°00' E 120°13'0 0.0
2018-Apr-15 20:41N 36°00' E 120°13'0 0.1
2018-Apr-15 20:23N 36°00' E 120°13'0 0.0
2018-Apr-15 19:50N 36°00' E 120°13'0 0.0
2018-Apr-15 19:14N 36°00' E 120°13'0 0.0
2018-Apr-15 18:08N 36°00' E 120°13'0 0.0
2018-Apr-15 17:50N 36°00' E 120°13'0 0.0
2018-Apr-15 17:17N 36°00' E 120°13'0 0.0
2018-Apr-15 16:59N 36°00' E 120°13'0 0.0
2018-Apr-15 16:25N 36°00' E 120°13'0 0.0
2018-Apr-15 15:51N 36°00' E 120°13'0 0.0
2018-Apr-15 13:37N 36°00' E 120°13'0 0.0
2018-Apr-15 11:25N 36°00' E 120°13'0 0.0
2018-Apr-15 10:12N 36°00' E 120°13'0 0.0
2018-Apr-15 09:54N 36°00' E 120°13'0 0.0
2018-Apr-15 09:16N 36°00' E 120°13'0 0.0
2018-Apr-15 09:00N 36°00' E 120°13'0 0.0
2018-Apr-15 05:53N 36°00' E 120°13'0 0.2
2018-Apr-15 05:01N 36°00' E 120°13'2 6.5
2018-Apr-15 04:44N 36°02' E 120°15'311.7
2018-Apr-15 04:30N 36°02' E 120°18'510.6
2018-Apr-15 04:00N 36°01' E 120°24'510.8
2018-Apr-15 03:31N 35°60' E 120°31'142 4.6
2018-Apr-13 20:27N 37°57' E 122°11'613.4
2018-Apr-13 19:58N 38°00' E 122°03'613.6
2018-Apr-13 19:31N 38°03' E 121°56'1413.6
2018-Apr-13 18:27N 38°11' E 121°41'713.5
2018-Apr-13 17:54N 38°15' E 121°33'513.3
2018-Apr-13 17:30N 38°17' E 121°27'713.1
2018-Apr-13 16:56N 38°21' E 121°19'1512.9
2018-Apr-13 15:45N 38°29' E 121°02'513.5
2018-Apr-13 15:25N 38°31' E 120°57'25 0.5
2018-Apr-11 15:52N 38°23' E 121°27'513.8
2018-Apr-11 15:30N 38°21' E 121°33'2013.6
2018-Apr-11 14:03N 38°12' E 121°55'113.5
2018-Apr-11 14:00N 38°11' E 121°56'1013.5
2018-Apr-11 13:16N 38°07' E 122°07'313.3
2018-Apr-11 13:01N 38°05' E 122°11'2113.3
2018-Apr-11 11:28N 37°56' E 122°34'613.2
2018-Apr-11 10:59N 37°53' E 122°41'368 9.6
2018-Apr-09 20:33N 34°49' E 129°17'312.2
2018-Apr-09 20:17N 34°52' E 129°19'412.7
2018-Apr-09 20:00N 34°55' E 129°22'713.2
2018-Apr-09 19:30N 35°00' E 129°26'612.9
2018-Apr-09 19:00N 35°07' E 129°28'713.2
2018-Apr-09 18:30N 35°12' E 129°33'713.4
2018-Apr-09 17:59N 35°18' E 129°38'1313.1
2018-Apr-09 17:01N 35°28' E 129°48'013.9
2018-Apr-09 17:00N 35°28' E 129°48'713.1
2018-Apr-09 16:30N 35°34' E 129°52'  
Track history (hours):
 
Tides and Currents Weather Stations Pressure Air Temp Water Temp Dewpoint Dewpoint Depression Visibility Wind Speed Wind Dir Waves Ship Positions

Xin Fei Zhou

Last reported at 2018-Apr-18 15:29 UTC. Time now 2018-Apr-19 17:08 UTC.
Position N 29°44' E 122°25'.

Length 335 m; draft 11.8 m.

Type: Ship (hazmat cat A). MMSI: 413171000.

Date/timePositionNaut miles runAvg speedWind from/ knotsBaromVisibWave heightAir tempDewpointWater temp
2018-Apr-18 15:29N 29°44' E 122°25'715.6
2018-Apr-18 15:00N 29°42' E 122°33'34 1.1
2018-Apr-17 06:38N 30°07' E 123°00'37313.7
2018-Apr-16 03:24N 35°59' E 120°32'612.2
2018-Apr-16 02:53N 36°00' E 120°24'810.2
2018-Apr-16 02:08N 36°02' E 120°15'3 7.6
2018-Apr-16 01:49N 36°00' E 120°13'0 0.4
2018-Apr-16 01:20N 36°00' E 120°13'0 0.0
2018-Apr-16 00:26N 36°00' E 120°13'0 0.0
2018-Apr-15 23:50N 36°00' E 120°13'0 0.0
2018-Apr-15 22:05N 36°00' E 120°13'0 0.0
2018-Apr-15 21:47N 36°00' E 120°13'0 0.0
2018-Apr-15 21:23N 36°00' E 120°13'0 0.0
2018-Apr-15 20:41N 36°00' E 120°13'0 0.1
2018-Apr-15 20:23N 36°00' E 120°13'0 0.0
2018-Apr-15 19:50N 36°00' E 120°13'0 0.0
2018-Apr-15 19:14N 36°00' E 120°13'0 0.0
2018-Apr-15 18:08N 36°00' E 120°13'0 0.0
2018-Apr-15 17:50N 36°00' E 120°13'0 0.0
2018-Apr-15 17:17N 36°00' E 120°13'0 0.0
2018-Apr-15 16:59N 36°00' E 120°13'0 0.0
2018-Apr-15 16:25N 36°00' E 120°13'0 0.0
2018-Apr-15 15:51N 36°00' E 120°13'0 0.0
2018-Apr-15 13:37N 36°00' E 120°13'0 0.0
2018-Apr-15 11:25N 36°00' E 120°13'0 0.0
2018-Apr-15 10:12N 36°00' E 120°13'0 0.0
2018-Apr-15 09:54N 36°00' E 120°13'0 0.0
2018-Apr-15 09:16N 36°00' E 120°13'0 0.0
2018-Apr-15 09:00N 36°00' E 120°13'0 0.0
2018-Apr-15 05:53N 36°00' E 120°13'0 0.2
2018-Apr-15 05:01N 36°00' E 120°13'2 6.5
2018-Apr-15 04:44N 36°02' E 120°15'311.7
2018-Apr-15 04:30N 36°02' E 120°18'510.6
2018-Apr-15 04:00N 36°01' E 120°24'510.8
2018-Apr-15 03:31N 35°60' E 120°31'142 4.6
2018-Apr-13 20:27N 37°57' E 122°11'613.4
2018-Apr-13 19:58N 38°00' E 122°03'613.6
2018-Apr-13 19:31N 38°03' E 121°56'1413.6
2018-Apr-13 18:27N 38°11' E 121°41'713.5
2018-Apr-13 17:54N 38°15' E 121°33'513.3
2018-Apr-13 17:30N 38°17' E 121°27'713.1
2018-Apr-13 16:56N 38°21' E 121°19'1512.9
2018-Apr-13 15:45N 38°29' E 121°02'513.5
2018-Apr-13 15:25N 38°31' E 120°57'25 0.5
2018-Apr-11 15:52N 38°23' E 121°27'513.8
2018-Apr-11 15:30N 38°21' E 121°33'2013.6
2018-Apr-11 14:03N 38°12' E 121°55'113.5
2018-Apr-11 14:00N 38°11' E 121°56'1013.5
2018-Apr-11 13:16N 38°07' E 122°07'313.3
2018-Apr-11 13:01N 38°05' E 122°11'2113.3
2018-Apr-11 11:28N 37°56' E 122°34'613.2
2018-Apr-11 10:59N 37°53' E 122°41'368 9.6
2018-Apr-09 20:33N 34°49' E 129°17'312.2
2018-Apr-09 20:17N 34°52' E 129°19'412.7
2018-Apr-09 20:00N 34°55' E 129°22'713.2
2018-Apr-09 19:30N 35°00' E 129°26'612.9
2018-Apr-09 19:00N 35°07' E 129°28'713.2
2018-Apr-09 18:30N 35°12' E 129°33'713.4
2018-Apr-09 17:59N 35°18' E 129°38'1313.1
2018-Apr-09 17:01N 35°28' E 129°48'013.9
2018-Apr-09 17:00N 35°28' E 129°48'713.1
2018-Apr-09 16:30N 35°34' E 129°52'  

Dump ship's entire track history